createdAt,value
2018-04-29T00:01:33.665Z,100888.05
2018-04-29T00:04:00.384Z,100884.03
2018-04-29T00:06:28.009Z,100889.58
2018-04-29T00:08:55.624Z,100883.67
2018-04-29T00:11:22.772Z,100871.84
2018-04-29T00:13:50.345Z,100867.44
2018-04-29T00:16:17.207Z,100867.76
2018-04-29T00:18:43.899Z,100870.01
2018-04-29T00:21:10.713Z,100872.38
2018-04-29T00:23:38.140Z,100879.20
2018-04-29T00:26:06.461Z,100872.80
2018-04-29T00:28:33.250Z,100874.04
2018-04-29T00:31:00.125Z,100868.66
2018-04-29T00:33:27.852Z,100859.03
2018-04-29T00:35:54.833Z,100855.58
2018-04-29T00:38:21.722Z,100857.09
2018-04-29T00:40:49.093Z,100864.69
2018-04-29T00:43:16.847Z,100860.02
2018-04-29T00:45:44.839Z,100862.59
2018-04-29T00:48:11.688Z,100849.67
2018-04-29T00:50:38.347Z,100855.80
2018-04-29T00:53:05.076Z,100863.05
2018-04-29T00:55:31.807Z,100864.86
2018-04-29T00:57:59.417Z,100871.34
2018-04-29T01:00:26.659Z,100871.11
2018-04-29T01:02:54.085Z,100867.53
2018-04-29T01:05:20.996Z,100869.54
2018-04-29T01:07:48.859Z,100868.44
2018-04-29T01:10:18.387Z,100864.33
2018-04-29T01:12:46.002Z,100847.77
2018-04-29T01:15:12.788Z,100848.14
2018-04-29T01:17:40.520Z,100856.50
2018-04-29T01:20:07.810Z,100858.27
2018-04-29T01:22:35.090Z,100854.42
2018-04-29T01:25:02.860Z,100842.41
2018-04-29T01:27:29.670Z,100858.75
2018-04-29T01:29:57.269Z,100855.41
2018-04-29T01:32:24.261Z,100845.16
2018-04-29T01:34:51.616Z,100843.58
2018-04-29T01:37:19.430Z,100843.73
2018-04-29T01:39:46.098Z,100837.13
2018-04-29T01:42:12.966Z,100842.02
2018-04-29T01:44:39.648Z,100842.84
2018-04-29T01:47:06.486Z,100843.02
2018-04-29T01:49:33.214Z,100840.17
2018-04-29T01:52:01.028Z,100841.56
2018-04-29T01:54:28.052Z,100843.88
2018-04-29T01:56:55.638Z,100840.01
2018-04-29T01:59:22.368Z,100832.75
2018-04-29T02:01:49.231Z,100818.89
2018-04-29T02:04:16.238Z,100811.48
2018-04-29T02:06:43.134Z,100807.03
2018-04-29T02:09:10.155Z,100811.13
2018-04-29T02:11:36.783Z,100812.65
2018-04-29T02:14:03.753Z,100820.44
2018-04-29T02:16:30.762Z,100822.58
2018-04-29T02:18:57.783Z,100813.44
2018-04-29T02:21:24.538Z,100813.42
2018-04-29T02:23:52.345Z,100820.60
2018-04-29T02:26:19.194Z,100818.09
2018-04-29T02:28:46.457Z,100810.70
2018-04-29T02:31:14.094Z,100799.09
2018-04-29T02:33:41.777Z,100797.91
2018-04-29T02:36:09.783Z,100798.27
2018-04-29T02:38:37.538Z,100791.86
2018-04-29T02:41:04.491Z,100784.13
2018-04-29T02:43:32.109Z,100783.92
2018-04-29T02:45:58.914Z,100797.50
2018-04-29T02:48:26.638Z,100796.36
2018-04-29T02:50:53.513Z,100798.98
2018-04-29T02:53:21.748Z,100792.88
2018-04-29T02:55:49.918Z,100802.98
2018-04-29T02:58:16.954Z,100803.20
2018-04-29T03:00:43.913Z,100808.18
2018-04-29T03:03:12.297Z,100807.57
2018-04-29T03:05:39.530Z,100807.63
2018-04-29T03:08:06.164Z,100799.46
2018-04-29T03:10:33.211Z,100797.36
2018-04-29T03:12:59.857Z,100791.66
2018-04-29T03:15:26.594Z,100784.21
2018-04-29T03:17:53.787Z,100780.23
2018-04-29T03:20:21.226Z,100767.52
2018-04-29T03:22:47.928Z,100767.39
2018-04-29T03:25:14.751Z,100757.58
2018-04-29T03:27:42.212Z,100756.08
2018-04-29T03:30:09.025Z,100758.54
2018-04-29T03:32:36.514Z,100754.25
2018-04-29T03:35:03.272Z,100749.69
2018-04-29T03:37:30.427Z,100744.36
2018-04-29T03:39:57.171Z,100741.73
2018-04-29T03:42:23.853Z,100753.77
2018-04-29T03:44:52.228Z,100753.89
2018-04-29T03:47:19.788Z,100744.17
2018-04-29T03:49:46.663Z,100739.44
2018-04-29T03:52:13.392Z,100742.63
2018-04-29T03:54:40.320Z,100745.56
2018-04-29T03:57:26.264Z,100759.86
2018-04-29T04:00:11.488Z,100767.99
2018-04-29T04:02:57.349Z,100756.95
2018-04-29T04:05:25.652Z,100760.95
2018-04-29T04:07:53.192Z,100762.81
2018-04-29T04:10:19.921Z,100769.73
2018-04-29T04:12:46.851Z,100772.40
2018-04-29T04:15:14.008Z,100764.84
2018-04-29T04:17:40.762Z,100761.77
2018-04-29T04:20:07.516Z,100752.55
2018-04-29T04:22:34.444Z,100751.83
2018-04-29T04:25:01.211Z,100752.88
2018-04-29T04:27:28.712Z,100744.42
2018-04-29T04:29:55.424Z,100739.27
2018-04-29T04:32:23.180Z,100737.19
2018-04-29T04:34:49.983Z,100734.17
2018-04-29T04:37:16.886Z,100729.72
2018-04-29T04:39:44.425Z,100727.27
2018-04-29T04:42:11.110Z,100729.10
2018-04-29T04:44:38.235Z,100734.59
2018-04-29T04:47:12.818Z,100734.08
2018-04-29T04:49:41.056Z,100731.47
2018-04-29T04:52:08.574Z,100740.27
2018-04-29T04:54:35.256Z,100737.34
2018-04-29T04:57:02.033Z,100740.33
2018-04-29T04:59:29.482Z,100745.02
2018-04-29T05:01:56.297Z,100747.73
2018-04-29T05:04:23.982Z,100748.95
2018-04-29T05:06:50.847Z,100756.11
2018-04-29T05:09:17.508Z,100759.02
2018-04-29T05:11:44.273Z,100757.86
2018-04-29T05:14:11.689Z,100759.78
2018-04-29T05:16:38.501Z,100766.27
2018-04-29T05:19:05.945Z,100771.83
2018-04-29T05:21:32.643Z,100770.52
2018-04-29T05:23:59.657Z,100783.49
2018-04-29T05:26:26.529Z,100790.84
2018-04-29T05:28:53.240Z,100776.41
2018-04-29T05:31:19.936Z,100777.09
2018-04-29T05:33:46.684Z,100783.38
2018-04-29T05:36:14.404Z,100784.00
2018-04-29T05:38:41.104Z,100772.93
2018-04-29T05:41:08.740Z,100775.42
2018-04-29T05:43:35.704Z,100772.41
2018-04-29T05:46:02.535Z,100765.73
2018-04-29T05:48:30.948Z,100766.53
2018-04-29T05:50:57.757Z,100764.77
2018-04-29T05:53:25.181Z,100751.20
2018-04-29T05:55:52.307Z,100748.02
2018-04-29T05:58:19.361Z,100733.66
2018-04-29T06:00:46.178Z,100727.55
2018-04-29T06:03:12.949Z,100713.48
2018-04-29T06:05:39.838Z,100686.97
2018-04-29T06:08:07.896Z,100675.53
2018-04-29T06:10:35.287Z,100672.98
2018-04-29T06:13:02.703Z,100678.19
2018-04-29T06:15:29.613Z,100673.77
2018-04-29T06:17:57.181Z,100674.41
2018-04-29T06:20:24.897Z,100677.87
2018-04-29T06:22:53.129Z,100679.41
2018-04-29T06:25:19.840Z,100676.77
2018-04-29T06:27:46.686Z,100674.36
2018-04-29T06:30:13.462Z,100669.59
2018-04-29T06:32:40.389Z,100664.28
2018-04-29T06:35:07.135Z,100665.77
2018-04-29T06:37:33.876Z,100652.39
2018-04-29T06:40:00.552Z,100652.23
2018-04-29T06:42:27.398Z,100656.88
2018-04-29T06:44:54.855Z,100648.00
2018-04-29T06:47:21.557Z,100654.14
2018-04-29T06:49:48.264Z,100679.05
2018-04-29T06:52:14.901Z,100678.52
2018-04-29T06:54:41.672Z,100693.82
2018-04-29T06:57:08.383Z,100699.71
2018-04-29T06:59:35.049Z,100701.14
2018-04-29T07:02:02.235Z,100705.66
2018-04-29T07:04:29.410Z,100713.82
2018-04-29T07:06:56.872Z,100723.28
2018-04-29T07:09:24.340Z,100729.09
2018-04-29T07:11:50.973Z,100734.94
2018-04-29T07:14:17.651Z,100744.81
2018-04-29T07:16:44.496Z,100746.64
2018-04-29T07:19:11.272Z,100755.17
2018-04-29T07:21:38.661Z,100747.62
2018-04-29T07:24:05.656Z,100731.99
2018-04-29T07:26:32.458Z,100714.94
2018-04-29T07:28:59.391Z,100707.48
2018-04-29T07:31:26.199Z,100709.67
2018-04-29T07:33:52.940Z,100704.80
2018-04-29T07:36:20.400Z,100702.49
2018-04-29T07:38:47.201Z,100698.02
2018-04-29T07:41:13.926Z,100689.91
2018-04-29T07:43:41.104Z,100692.70
2018-04-29T07:46:07.806Z,100682.13
2018-04-29T07:48:35.036Z,100676.95
2018-04-29T07:51:02.752Z,100684.67
2018-04-29T07:53:29.671Z,100692.78
2018-04-29T07:55:56.436Z,100685.81
2018-04-29T07:58:23.998Z,100684.24
2018-04-29T08:00:50.885Z,100682.33
2018-04-29T08:03:18.371Z,100677.78
2018-04-29T08:05:45.364Z,100674.55
2018-04-29T08:08:12.071Z,100664.45
2018-04-29T08:10:38.899Z,100670.12
2018-04-29T08:13:06.735Z,100666.32
2018-04-29T08:15:33.727Z,100648.08
2018-04-29T08:18:00.405Z,100648.59
2018-04-29T08:20:27.140Z,100652.25
2018-04-29T08:22:53.836Z,100665.70
2018-04-29T08:25:21.367Z,100669.31
2018-04-29T08:27:48.171Z,100660.32
2018-04-29T08:30:15.132Z,100673.45
2018-04-29T08:32:42.057Z,100705.75
2018-04-29T08:35:08.824Z,100722.36
2018-04-29T08:37:35.669Z,100733.30
2018-04-29T08:40:02.408Z,100716.86
2018-04-29T08:42:29.094Z,100700.78
2018-04-29T08:44:55.949Z,100693.78
2018-04-29T08:47:22.812Z,100696.55
2018-04-29T08:49:50.016Z,100701.50
2018-04-29T08:52:17.509Z,100698.28
2018-04-29T08:54:44.331Z,100681.19
2018-04-29T08:57:11.793Z,100694.45
2018-04-29T08:59:38.689Z,100691.63
2018-04-29T09:02:07.319Z,100659.23
2018-04-29T09:04:34.186Z,100649.11
2018-04-29T09:07:01.029Z,100651.77
2018-04-29T09:09:27.989Z,100655.98
2018-04-29T09:11:54.697Z,100663.73
2018-04-29T09:14:22.154Z,100661.15
2018-04-29T09:16:49.603Z,100669.57
2018-04-29T09:19:17.176Z,100669.06
2018-04-29T09:21:44.663Z,100662.89
2018-04-29T09:24:11.390Z,100658.06
2018-04-29T09:26:38.132Z,100642.47
2018-04-29T09:29:04.853Z,100641.05
2018-04-29T09:31:32.468Z,100650.00
2018-04-29T09:36:32.561Z,100627.52
2018-04-29T09:38:59.238Z,100612.59
2018-04-29T09:41:25.980Z,100608.57
2018-04-29T09:43:52.764Z,100599.91
2018-04-29T09:46:20.208Z,100595.28
2018-04-29T09:48:47.853Z,100592.94
2018-04-29T09:51:14.532Z,100591.95
2018-04-29T09:53:41.336Z,100582.51
2018-04-29T09:56:08.012Z,100581.11
2018-04-29T09:58:35.585Z,100574.54
2018-04-29T10:01:02.389Z,100575.97
2018-04-29T10:03:29.284Z,100577.41
2018-04-29T10:05:56.130Z,100570.86
2018-04-29T10:08:22.812Z,100574.55
2018-04-29T10:10:50.244Z,100573.02
2018-04-29T10:13:17.131Z,100566.27
2018-04-29T10:15:44.762Z,100566.80
2018-04-29T10:18:11.583Z,100554.75
2018-04-29T10:20:38.341Z,100559.70
2018-04-29T10:23:05.399Z,100562.30
2018-04-29T10:25:33.021Z,100543.22
2018-04-29T10:27:59.832Z,100539.86
2018-04-29T10:30:27.354Z,100546.30
2018-04-29T10:32:54.100Z,100546.11
2018-04-29T10:35:21.313Z,100534.66
2018-04-29T10:37:47.996Z,100528.75
2018-04-29T10:40:15.396Z,100527.33
2018-04-29T10:42:42.244Z,100519.45
2018-04-29T10:45:09.016Z,100508.59
2018-04-29T10:47:35.708Z,100489.34
2018-04-29T10:50:02.400Z,100479.93
2018-04-29T10:52:29.720Z,100478.31
2018-04-29T10:54:56.436Z,100483.93
2018-04-29T10:57:25.558Z,100479.44
2018-04-29T10:59:52.306Z,100464.98
2018-04-29T11:02:19.199Z,100455.54
2018-04-29T11:04:46.655Z,100452.38
2018-04-29T11:07:13.626Z,100451.27
2018-04-29T11:09:40.625Z,100448.39
2018-04-29T11:12:07.500Z,100450.71
2018-04-29T11:14:35.204Z,100450.91
2018-04-29T11:17:02.168Z,100444.31
2018-04-29T11:19:29.298Z,100450.36
2018-04-29T11:21:56.284Z,100438.78
2018-04-29T11:24:23.854Z,100440.12
2018-04-29T11:26:50.606Z,100446.98
2018-04-29T11:29:17.428Z,100444.69
2018-04-29T11:31:44.131Z,100445.00
2018-04-29T11:34:10.866Z,100446.52
2018-04-29T11:36:37.617Z,100437.84
2018-04-29T11:39:05.416Z,100442.16
2018-04-29T11:41:32.919Z,100439.11
2018-04-29T11:43:59.716Z,100429.41
2018-04-29T11:46:27.051Z,100417.54
2018-04-29T11:48:54.064Z,100403.34
2018-04-29T11:51:20.870Z,100411.69
2018-04-29T11:53:48.410Z,100423.64
